sensor_id;sensor_type;location;lat;lon;timestamp;temperature;humidity
820;DHT22;392;48.838;2.322;2023-05-07T00:00:51;16.30;98.40
820;DHT22;392;48.838;2.322;2023-05-07T00:03:18;16.30;98.40
820;DHT22;392;48.838;2.322;2023-05-07T00:05:45;16.30;98.20
820;DHT22;392;48.838;2.322;2023-05-07T00:08:13;16.20;98.20
820;DHT22;392;48.838;2.322;2023-05-07T00:10:42;16.20;98.20
820;DHT22;392;48.838;2.322;2023-05-07T00:13:10;16.20;98.50
820;DHT22;392;48.838;2.322;2023-05-07T00:15:37;16.20;98.80
820;DHT22;392;48.838;2.322;2023-05-07T00:18:05;16.10;98.80
820;DHT22;392;48.838;2.322;2023-05-07T00:20:32;16.10;99.10
820;DHT22;392;48.838;2.322;2023-05-07T00:22:59;16.10;99.30
820;DHT22;392;48.838;2.322;2023-05-07T00:25:26;16.00;99.50
820;DHT22;392;48.838;2.322;2023-05-07T00:27:55;16.10;99.90
820;DHT22;392;48.838;2.322;2023-05-07T00:30:23;16.10;99.90
820;DHT22;392;48.838;2.322;2023-05-07T00:32:50;16.10;99.90
820;DHT22;392;48.838;2.322;2023-05-07T00:35:17;16.10;99.90
820;DHT22;392;48.838;2.322;2023-05-07T00:37:45;16.10;99.90
820;DHT22;392;48.838;2.322;2023-05-07T00:40:12;16.10;99.90
820;DHT22;392;48.838;2.322;2023-05-07T00:42:40;16.10;99.90
820;DHT22;392;48.838;2.322;2023-05-07T00:45:09;16.10;99.90
820;DHT22;392;48.838;2.322;2023-05-07T00:47:37;15.90;99.90
820;DHT22;392;48.838;2.322;2023-05-07T00:50:06;15.90;99.90
820;DHT22;392;48.838;2.322;2023-05-07T00:52:34;15.90;99.90
820;DHT22;392;48.838;2.322;2023-05-07T00:55:04;15.90;99.90
820;DHT22;392;48.838;2.322;2023-05-07T00:57:36;15.80;99.90
820;DHT22;392;48.838;2.322;2023-05-07T01:00:05;15.80;99.90
820;DHT22;392;48.838;2.322;2023-05-07T01:02:35;15.80;99.60
820;DHT22;392;48.838;2.322;2023-05-07T01:05:05;15.70;99.40
820;DHT22;392;48.838;2.322;2023-05-07T01:07:37;15.80;99.50
820;DHT22;392;48.838;2.322;2023-05-07T01:10:06;15.80;99.50
820;DHT22;392;48.838;2.322;2023-05-07T01:12:35;15.70;99.20
820;DHT22;392;48.838;2.322;2023-05-07T01:15:05;15.80;99.40
820;DHT22;392;48.838;2.322;2023-05-07T01:17:36;15.70;98.70
820;DHT22;392;48.838;2.322;2023-05-07T01:20:08;15.70;99.00
820;DHT22;392;48.838;2.322;2023-05-07T01:22:38;15.80;98.80
820;DHT22;392;48.838;2.322;2023-05-07T01:25:07;15.90;98.60
820;DHT22;392;48.838;2.322;2023-05-07T01:27:38;15.90;98.50
820;DHT22;392;48.838;2.322;2023-05-07T01:30:07;15.90;98.40
820;DHT22;392;48.838;2.322;2023-05-07T01:32:40;16.00;98.40
820;DHT22;392;48.838;2.322;2023-05-07T01:35:12;16.00;98.40
820;DHT22;392;48.838;2.322;2023-05-07T01:37:44;16.00;98.30
820;DHT22;392;48.838;2.322;2023-05-07T01:40:12;16.10;98.20
820;DHT22;392;48.838;2.322;2023-05-07T01:42:40;16.00;98.10
820;DHT22;392;48.838;2.322;2023-05-07T01:45:09;16.10;98.40
820;DHT22;392;48.838;2.322;2023-05-07T01:47:37;16.20;98.50
820;DHT22;392;48.838;2.322;2023-05-07T01:50:07;16.20;98.40
820;DHT22;392;48.838;2.322;2023-05-07T01:52:37;16.20;98.00
820;DHT22;392;48.838;2.322;2023-05-07T01:55:07;16.20;97.90
820;DHT22;392;48.838;2.322;2023-05-07T01:57:35;16.20;98.20
820;DHT22;392;48.838;2.322;2023-05-07T02:00:02;16.30;98.40
820;DHT22;392;48.838;2.322;2023-05-07T02:02:41;16.30;98.40
820;DHT22;392;48.838;2.322;2023-05-07T02:05:18;16.30;98.20
820;DHT22;392;48.838;2.322;2023-05-07T02:07:50;16.20;97.40
820;DHT22;392;48.838;2.322;2023-05-07T02:10:19;16.20;96.90
820;DHT22;392;48.838;2.322;2023-05-07T02:12:46;16.20;96.40
820;DHT22;392;48.838;2.322;2023-05-07T02:15:13;16.20;95.30
820;DHT22;392;48.838;2.322;2023-05-07T02:17:59;16.10;94.40
820;DHT22;392;48.838;2.322;2023-05-07T02:20:28;16.20;94.30
820;DHT22;392;48.838;2.322;2023-05-07T02:22:56;16.20;94.20
820;DHT22;392;48.838;2.322;2023-05-07T02:25:26;16.20;94.10
820;DHT22;392;48.838;2.322;2023-05-07T02:27:54;16.30;94.10
820;DHT22;392;48.838;2.322;2023-05-07T02:30:30;16.30;93.90
820;DHT22;392;48.838;2.322;2023-05-07T02:32:58;16.30;94.20
820;DHT22;392;48.838;2.322;2023-05-07T02:35:26;16.30;94.50
820;DHT22;392;48.838;2.322;2023-05-07T02:37:54;16.40;94.80
820;DHT22;392;48.838;2.322;2023-05-07T02:40:23;16.40;94.70
820;DHT22;392;48.838;2.322;2023-05-07T02:42:52;16.30;94.20
820;DHT22;392;48.838;2.322;2023-05-07T02:45:19;16.20;93.30
820;DHT22;392;48.838;2.322;2023-05-07T02:47:49;16.10;92.90
820;DHT22;392;48.838;2.322;2023-05-07T02:50:16;16.10;92.90
820;DHT22;392;48.838;2.322;2023-05-07T02:52:44;16.20;93.00
820;DHT22;392;48.838;2.322;2023-05-07T02:55:11;16.20;92.80
820;DHT22;392;48.838;2.322;2023-05-07T02:57:39;16.20;92.50
820;DHT22;392;48.838;2.322;2023-05-07T03:00:13;16.20;92.30
820;DHT22;392;48.838;2.322;2023-05-07T03:02:48;16.30;92.30
820;DHT22;392;48.838;2.322;2023-05-07T03:05:15;16.30;91.90
820;DHT22;392;48.838;2.322;2023-05-07T03:07:42;16.30;91.80
820;DHT22;392;48.838;2.322;2023-05-07T03:10:12;16.40;91.70
820;DHT22;392;48.838;2.322;2023-05-07T03:12:39;16.40;91.50
820;DHT22;392;48.838;2.322;2023-05-07T03:15:09;16.30;91.30
820;DHT22;392;48.838;2.322;2023-05-07T03:17:38;16.40;91.30
820;DHT22;392;48.838;2.322;2023-05-07T03:20:07;16.40;91.20
820;DHT22;392;48.838;2.322;2023-05-07T03:22:35;16.40;91.00
820;DHT22;392;48.838;2.322;2023-05-07T03:25:03;16.40;90.70
820;DHT22;392;48.838;2.322;2023-05-07T03:27:31;16.40;90.30
820;DHT22;392;48.838;2.322;2023-05-07T03:29:59;16.40;90.40
820;DHT22;392;48.838;2.322;2023-05-07T03:32:26;16.40;88.80
820;DHT22;392;48.838;2.322;2023-05-07T03:34:55;16.40;87.70
820;DHT22;392;48.838;2.322;2023-05-07T03:37:22;16.50;86.70
820;DHT22;392;48.838;2.322;2023-05-07T03:39:50;16.50;86.10
820;DHT22;392;48.838;2.322;2023-05-07T03:42:17;16.50;85.00
820;DHT22;392;48.838;2.322;2023-05-07T03:44:48;16.50;84.30
820;DHT22;392;48.838;2.322;2023-05-07T03:47:15;16.50;84.10
820;DHT22;392;48.838;2.322;2023-05-07T03:49:44;16.50;83.90
820;DHT22;392;48.838;2.322;2023-05-07T03:52:13;16.50;83.70
820;DHT22;392;48.838;2.322;2023-05-07T03:54:41;16.50;83.00
820;DHT22;392;48.838;2.322;2023-05-07T03:57:08;16.40;83.30
820;DHT22;392;48.838;2.322;2023-05-07T03:59:36;16.40;83.50
820;DHT22;392;48.838;2.322;2023-05-07T04:02:04;16.40;83.70
820;DHT22;392;48.838;2.322;2023-05-07T04:04:31;16.40;83.70
820;DHT22;392;48.838;2.322;2023-05-07T04:06:59;16.40;84.20
820;DHT22;392;48.838;2.322;2023-05-07T04:09:29;16.40;85.10
820;DHT22;392;48.838;2.322;2023-05-07T04:11:57;16.40;86.10
820;DHT22;392;48.838;2.322;2023-05-07T04:14:24;16.40;86.70
820;DHT22;392;48.838;2.322;2023-05-07T04:16:52;16.40;86.80
820;DHT22;392;48.838;2.322;2023-05-07T04:19:19;16.40;87.10
820;DHT22;392;48.838;2.322;2023-05-07T04:21:50;16.40;87.30
820;DHT22;392;48.838;2.322;2023-05-07T04:24:17;16.40;87.10
820;DHT22;392;48.838;2.322;2023-05-07T04:26:46;16.30;86.50
820;DHT22;392;48.838;2.322;2023-05-07T04:29:14;16.30;86.00
820;DHT22;392;48.838;2.322;2023-05-07T04:31:42;16.30;86.20
820;DHT22;392;48.838;2.322;2023-05-07T04:34:10;16.30;86.00
820;DHT22;392;48.838;2.322;2023-05-07T04:36:38;16.30;86.10
820;DHT22;392;48.838;2.322;2023-05-07T04:39:10;16.20;84.80
820;DHT22;392;48.838;2.322;2023-05-07T04:41:40;16.20;85.60
820;DHT22;392;48.838;2.322;2023-05-07T04:44:10;16.20;85.60
820;DHT22;392;48.838;2.322;2023-05-07T04:46:38;16.30;86.00
820;DHT22;392;48.838;2.322;2023-05-07T04:49:05;16.30;86.50
820;DHT22;392;48.838;2.322;2023-05-07T04:51:34;16.40;86.20
820;DHT22;392;48.838;2.322;2023-05-07T04:54:01;16.40;86.20
820;DHT22;392;48.838;2.322;2023-05-07T04:56:30;16.40;86.00
820;DHT22;392;48.838;2.322;2023-05-07T04:58:59;16.40;86.10
820;DHT22;392;48.838;2.322;2023-05-07T05:01:29;16.40;85.80
820;DHT22;392;48.838;2.322;2023-05-07T05:03:56;16.30;85.90
820;DHT22;392;48.838;2.322;2023-05-07T05:06:25;16.40;86.50
820;DHT22;392;48.838;2.322;2023-05-07T05:08:53;16.30;86.50
820;DHT22;392;48.838;2.322;2023-05-07T05:11:21;16.30;86.60
820;DHT22;392;48.838;2.322;2023-05-07T05:13:49;16.40;87.40
820;DHT22;392;48.838;2.322;2023-05-07T05:16:19;16.40;87.20
820;DHT22;392;48.838;2.322;2023-05-07T05:18:49;16.40;87.40
820;DHT22;392;48.838;2.322;2023-05-07T05:21:18;16.40;87.60
820;DHT22;392;48.838;2.322;2023-05-07T05:23:48;16.40;87.20
820;DHT22;392;48.838;2.322;2023-05-07T05:26:19;16.40;86.60
820;DHT22;392;48.838;2.322;2023-05-07T05:28:47;16.40;86.60
820;DHT22;392;48.838;2.322;2023-05-07T05:31:17;16.40;86.20
820;DHT22;392;48.838;2.322;2023-05-07T05:33:44;16.40;85.60
820;DHT22;392;48.838;2.322;2023-05-07T05:36:13;16.40;85.40
820;DHT22;392;48.838;2.322;2023-05-07T05:38:42;16.40;84.90
820;DHT22;392;48.838;2.322;2023-05-07T05:41:11;16.50;84.90
820;DHT22;392;48.838;2.322;2023-05-07T05:43:38;16.50;83.90
820;DHT22;392;48.838;2.322;2023-05-07T05:46:06;16.50;83.00
820;DHT22;392;48.838;2.322;2023-05-07T05:48:34;16.60;82.50
820;DHT22;392;48.838;2.322;2023-05-07T05:51:03;16.60;81.90
820;DHT22;392;48.838;2.322;2023-05-07T05:53:32;16.60;81.50
820;DHT22;392;48.838;2.322;2023-05-07T05:55:59;16.60;81.60
820;DHT22;392;48.838;2.322;2023-05-07T05:58:27;16.70;81.60
820;DHT22;392;48.838;2.322;2023-05-07T06:00:59;16.60;81.00
820;DHT22;392;48.838;2.322;2023-05-07T06:03:29;16.60;81.40
820;DHT22;392;48.838;2.322;2023-05-07T06:06:00;16.60;81.80
820;DHT22;392;48.838;2.322;2023-05-07T06:08:29;16.70;82.00
820;DHT22;392;48.838;2.322;2023-05-07T06:10:58;16.60;81.60
820;DHT22;392;48.838;2.322;2023-05-07T06:13:27;16.70;81.40
820;DHT22;392;48.838;2.322;2023-05-07T06:15:54;16.60;81.20
820;DHT22;392;48.838;2.322;2023-05-07T06:18:21;16.70;81.30
820;DHT22;392;48.838;2.322;2023-05-07T06:20:49;16.70;80.60
820;DHT22;392;48.838;2.322;2023-05-07T06:23:23;16.70;80.20
820;DHT22;392;48.838;2.322;2023-05-07T06:25:51;16.70;79.20
820;DHT22;392;48.838;2.322;2023-05-07T06:28:23;16.70;79.10
820;DHT22;392;48.838;2.322;2023-05-07T06:30:51;16.70;78.90
820;DHT22;392;48.838;2.322;2023-05-07T06:33:18;16.70;78.20
820;DHT22;392;48.838;2.322;2023-05-07T06:35:46;16.80;78.20
820;DHT22;392;48.838;2.322;2023-05-07T06:38:14;16.80;78.20
820;DHT22;392;48.838;2.322;2023-05-07T06:40:42;16.90;77.80
820;DHT22;392;48.838;2.322;2023-05-07T06:43:10;16.90;77.90
820;DHT22;392;48.838;2.322;2023-05-07T06:45:48;16.90;77.70
820;DHT22;392;48.838;2.322;2023-05-07T06:48:16;17.00;77.20
820;DHT22;392;48.838;2.322;2023-05-07T06:50:50;17.00;77.00
820;DHT22;392;48.838;2.322;2023-05-07T06:53:18;17.00;76.30
820;DHT22;392;48.838;2.322;2023-05-07T06:55:46;17.00;75.80
820;DHT22;392;48.838;2.322;2023-05-07T06:58:14;17.00;75.40
820;DHT22;392;48.838;2.322;2023-05-07T07:00:42;17.10;74.90
820;DHT22;392;48.838;2.322;2023-05-07T07:03:11;17.10;74.10
820;DHT22;392;48.838;2.322;2023-05-07T07:05:40;17.20;74.10
820;DHT22;392;48.838;2.322;2023-05-07T07:08:08;17.20;73.90
820;DHT22;392;48.838;2.322;2023-05-07T07:10:36;17.20;73.20
820;DHT22;392;48.838;2.322;2023-05-07T07:13:03;17.20;72.80
820;DHT22;392;48.838;2.322;2023-05-07T07:15:31;17.30;73.30
820;DHT22;392;48.838;2.322;2023-05-07T07:17:58;17.30;73.30
820;DHT22;392;48.838;2.322;2023-05-07T07:20:27;17.40;72.80
820;DHT22;392;48.838;2.322;2023-05-07T07:22:54;17.30;72.90
820;DHT22;392;48.838;2.322;2023-05-07T07:25:22;17.30;73.10
820;DHT22;392;48.838;2.322;2023-05-07T07:27:50;17.20;73.30
820;DHT22;392;48.838;2.322;2023-05-07T07:30:19;17.10;74.60
820;DHT22;392;48.838;2.322;2023-05-07T07:32:48;17.10;75.10
820;DHT22;392;48.838;2.322;2023-05-07T07:35:15;17.20;75.50
820;DHT22;392;48.838;2.322;2023-05-07T07:37:45;17.20;75.10
820;DHT22;392;48.838;2.322;2023-05-07T07:40:14;17.30;74.20
820;DHT22;392;48.838;2.322;2023-05-07T07:42:42;17.30;73.30
820;DHT22;392;48.838;2.322;2023-05-07T07:45:10;17.30;72.80
820;DHT22;392;48.838;2.322;2023-05-07T07:47:42;17.30;72.50
820;DHT22;392;48.838;2.322;2023-05-07T07:50:10;17.30;72.20
820;DHT22;392;48.838;2.322;2023-05-07T07:52:37;17.30;71.70
820;DHT22;392;48.838;2.322;2023-05-07T07:55:08;17.30;70.90
820;DHT22;392;48.838;2.322;2023-05-07T07:57:37;17.30;71.50
820;DHT22;392;48.838;2.322;2023-05-07T08:00:05;17.30;72.70
820;DHT22;392;48.838;2.322;2023-05-07T08:02:42;17.30;73.60
820;DHT22;392;48.838;2.322;2023-05-07T08:05:14;17.40;73.30
820;DHT22;392;48.838;2.322;2023-05-07T08:07:43;17.40;73.10
820;DHT22;392;48.838;2.322;2023-05-07T08:10:14;17.50;72.90
820;DHT22;392;48.838;2.322;2023-05-07T08:12:48;17.60;72.20
820;DHT22;392;48.838;2.322;2023-05-07T08:15:16;17.70;71.50
820;DHT22;392;48.838;2.322;2023-05-07T08:17:44;17.70;69.60
820;DHT22;392;48.838;2.322;2023-05-07T08:20:12;17.70;70.10
820;DHT22;392;48.838;2.322;2023-05-07T08:22:39;17.80;68.80
820;DHT22;392;48.838;2.322;2023-05-07T08:25:08;17.80;68.80
820;DHT22;392;48.838;2.322;2023-05-07T08:27:37;17.80;69.00
820;DHT22;392;48.838;2.322;2023-05-07T08:30:06;17.80;69.70
820;DHT22;392;48.838;2.322;2023-05-07T08:32:35;17.90;69.60
820;DHT22;392;48.838;2.322;2023-05-07T08:35:03;18.00;70.30
820;DHT22;392;48.838;2.322;2023-05-07T08:37:30;17.90;69.60
820;DHT22;392;48.838;2.322;2023-05-07T08:39:59;17.80;71.30
820;DHT22;392;48.838;2.322;2023-05-07T08:42:31;17.80;73.40
820;DHT22;392;48.838;2.322;2023-05-07T08:45:05;17.80;74.30
820;DHT22;392;48.838;2.322;2023-05-07T08:47:43;17.80;72.80
820;DHT22;392;48.838;2.322;2023-05-07T08:50:12;17.80;73.60
820;DHT22;392;48.838;2.322;2023-05-07T08:52:40;17.60;72.30
820;DHT22;392;48.838;2.322;2023-05-07T08:55:10;17.60;74.40
820;DHT22;392;48.838;2.322;2023-05-07T08:57:39;17.70;75.40
820;DHT22;392;48.838;2.322;2023-05-07T09:00:09;17.80;73.20
820;DHT22;392;48.838;2.322;2023-05-07T09:02:38;17.90;72.70
820;DHT22;392;48.838;2.322;2023-05-07T09:05:07;18.00;72.80
820;DHT22;392;48.838;2.322;2023-05-07T09:07:36;17.90;72.00
820;DHT22;392;48.838;2.322;2023-05-07T09:10:07;18.00;73.70
820;DHT22;392;48.838;2.322;2023-05-07T09:12:39;18.10;71.80
820;DHT22;392;48.838;2.322;2023-05-07T09:15:09;18.10;70.40
820;DHT22;392;48.838;2.322;2023-05-07T09:17:38;18.20;69.30
820;DHT22;392;48.838;2.322;2023-05-07T09:20:07;18.30;69.10
820;DHT22;392;48.838;2.322;2023-05-07T09:22:37;18.40;68.00
820;DHT22;392;48.838;2.322;2023-05-07T09:25:08;18.40;66.40
820;DHT22;392;48.838;2.322;2023-05-07T09:27:39;18.50;63.70
820;DHT22;392;48.838;2.322;2023-05-07T09:30:07;18.60;63.20
820;DHT22;392;48.838;2.322;2023-05-07T09:32:36;18.70;61.90
820;DHT22;392;48.838;2.322;2023-05-07T09:35:08;18.80;61.80
820;DHT22;392;48.838;2.322;2023-05-07T09:37:41;18.90;60.50
820;DHT22;392;48.838;2.322;2023-05-07T09:40:20;19.00;60.00
820;DHT22;392;48.838;2.322;2023-05-07T09:42:49;18.90;58.20
820;DHT22;392;48.838;2.322;2023-05-07T09:45:21;18.90;59.00
820;DHT22;392;48.838;2.322;2023-05-07T09:47:54;19.00;59.20
820;DHT22;392;48.838;2.322;2023-05-07T09:50:27;19.00;60.20
820;DHT22;392;48.838;2.322;2023-05-07T09:52:57;19.10;60.10
820;DHT22;392;48.838;2.322;2023-05-07T09:55:25;19.20;59.80
820;DHT22;392;48.838;2.322;2023-05-07T09:57:54;19.30;60.00
820;DHT22;392;48.838;2.322;2023-05-07T10:00:22;19.40;58.40
820;DHT22;392;48.838;2.322;2023-05-07T10:03:00;19.30;56.90
820;DHT22;392;48.838;2.322;2023-05-07T10:05:37;19.30;56.80
820;DHT22;392;48.838;2.322;2023-05-07T10:08:06;19.20;56.50
820;DHT22;392;48.838;2.322;2023-05-07T10:10:37;19.10;58.20
820;DHT22;392;48.838;2.322;2023-05-07T10:13:10;19.10;59.10
820;DHT22;392;48.838;2.322;2023-05-07T10:15:41;19.20;59.00
820;DHT22;392;48.838;2.322;2023-05-07T10:18:10;19.30;59.40
820;DHT22;392;48.838;2.322;2023-05-07T10:20:39;19.50;58.20
820;DHT22;392;48.838;2.322;2023-05-07T10:23:13;19.80;57.90
820;DHT22;392;48.838;2.322;2023-05-07T10:25:45;20.30;55.10
820;DHT22;392;48.838;2.322;2023-05-07T10:28:20;20.60;48.00
820;DHT22;392;48.838;2.322;2023-05-07T10:30:58;21.00;46.50
820;DHT22;392;48.838;2.322;2023-05-07T10:33:39;21.30;44.40
820;DHT22;392;48.838;2.322;2023-05-07T10:36:08;21.60;42.30
820;DHT22;392;48.838;2.322;2023-05-07T10:38:36;21.80;40.50
820;DHT22;392;48.838;2.322;2023-05-07T10:41:04;21.80;39.70
820;DHT22;392;48.838;2.322;2023-05-07T10:43:43;21.60;38.90
820;DHT22;392;48.838;2.322;2023-05-07T10:46:32;21.30;39.20
820;DHT22;392;48.838;2.322;2023-05-07T10:49:12;21.00;40.20
820;DHT22;392;48.838;2.322;2023-05-07T10:52:18;20.80;41.60
820;DHT22;392;48.838;2.322;2023-05-07T10:55:20;20.60;43.60
820;DHT22;392;48.838;2.322;2023-05-07T10:58:29;20.30;45.10
820;DHT22;392;48.838;2.322;2023-05-07T11:01:13;20.10;48.60
820;DHT22;392;48.838;2.322;2023-05-07T11:04:13;19.90;51.20
820;DHT22;392;48.838;2.322;2023-05-07T11:10:03;19.60;55.70
820;DHT22;392;48.838;2.322;2023-05-07T11:12:55;19.60;58.70
820;DHT22;392;48.838;2.322;2023-05-07T11:15:41;19.50;60.20
820;DHT22;392;48.838;2.322;2023-05-07T11:18:18;19.40;60.70
820;DHT22;392;48.838;2.322;2023-05-07T11:20:53;19.30;62.60
820;DHT22;392;48.838;2.322;2023-05-07T11:23:58;19.20;64.20
820;DHT22;392;48.838;2.322;2023-05-07T11:26:43;19.00;65.30
820;DHT22;392;48.838;2.322;2023-05-07T11:29:13;18.90;66.50
820;DHT22;392;48.838;2.322;2023-05-07T11:31:43;18.80;70.60
820;DHT22;392;48.838;2.322;2023-05-07T11:34:14;18.70;74.30
820;DHT22;392;48.838;2.322;2023-05-07T11:36:43;18.70;76.50
820;DHT22;392;48.838;2.322;2023-05-07T11:39:25;18.80;77.20
820;DHT22;392;48.838;2.322;2023-05-07T11:41:53;18.80;75.40
820;DHT22;392;48.838;2.322;2023-05-07T11:44:21;18.80;73.70
820;DHT22;392;48.838;2.322;2023-05-07T11:46:49;18.90;74.20
820;DHT22;392;48.838;2.322;2023-05-07T11:49:18;18.90;74.30
820;DHT22;392;48.838;2.322;2023-05-07T11:51:45;19.00;73.10
820;DHT22;392;48.838;2.322;2023-05-07T11:54:16;19.10;71.60
820;DHT22;392;48.838;2.322;2023-05-07T11:56:44;19.30;71.90
820;DHT22;392;48.838;2.322;2023-05-07T11:59:17;19.80;69.80
820;DHT22;392;48.838;2.322;2023-05-07T12:01:48;21.20;66.50
820;DHT22;392;48.838;2.322;2023-05-07T12:04:20;23.30;54.00
820;DHT22;392;48.838;2.322;2023-05-07T12:06:48;25.30;39.20
820;DHT22;392;48.838;2.322;2023-05-07T12:09:17;26.50;30.40
820;DHT22;392;48.838;2.322;2023-05-07T12:11:46;27.10;27.70
820;DHT22;392;48.838;2.322;2023-05-07T12:14:13;27.00;26.50
820;DHT22;392;48.838;2.322;2023-05-07T12:16:42;26.70;26.10
820;DHT22;392;48.838;2.322;2023-05-07T12:19:09;26.00;26.90
820;DHT22;392;48.838;2.322;2023-05-07T12:21:39;25.40;27.70
820;DHT22;392;48.838;2.322;2023-05-07T12:24:08;25.00;28.60
820;DHT22;392;48.838;2.322;2023-05-07T12:26:38;24.60;28.90
820;DHT22;392;48.838;2.322;2023-05-07T12:29:06;24.30;30.10
820;DHT22;392;48.838;2.322;2023-05-07T12:31:33;23.80;31.90
820;DHT22;392;48.838;2.322;2023-05-07T12:34:02;23.20;35.00
820;DHT22;392;48.838;2.322;2023-05-07T12:36:36;22.70;37.90
820;DHT22;392;48.838;2.322;2023-05-07T12:39:05;22.10;40.00
820;DHT22;392;48.838;2.322;2023-05-07T12:41:36;21.60;44.60
820;DHT22;392;48.838;2.322;2023-05-07T12:44:21;21.30;48.00
820;DHT22;392;48.838;2.322;2023-05-07T12:46:49;20.90;51.70
820;DHT22;392;48.838;2.322;2023-05-07T12:49:16;20.60;55.20
820;DHT22;392;48.838;2.322;2023-05-07T12:51:46;20.40;57.50
820;DHT22;392;48.838;2.322;2023-05-07T12:54:15;20.20;53.40
820;DHT22;392;48.838;2.322;2023-05-07T12:57:00;19.90;53.70
820;DHT22;392;48.838;2.322;2023-05-07T12:59:33;19.80;54.20
820;DHT22;392;48.838;2.322;2023-05-07T13:02:01;19.80;55.00
820;DHT22;392;48.838;2.322;2023-05-07T13:04:29;19.80;57.20
820;DHT22;392;48.838;2.322;2023-05-07T13:06:58;19.90;58.10
820;DHT22;392;48.838;2.322;2023-05-07T13:09:25;20.00;57.30
820;DHT22;392;48.838;2.322;2023-05-07T13:11:54;20.00;54.40
820;DHT22;392;48.838;2.322;2023-05-07T13:14:22;20.00;54.20
820;DHT22;392;48.838;2.322;2023-05-07T13:16:49;20.00;53.20
820;DHT22;392;48.838;2.322;2023-05-07T13:19:16;20.00;53.20
820;DHT22;392;48.838;2.322;2023-05-07T13:21:44;19.90;53.10
820;DHT22;392;48.838;2.322;2023-05-07T13:24:12;19.90;54.00
820;DHT22;392;48.838;2.322;2023-05-07T13:26:40;19.90;54.10
820;DHT22;392;48.838;2.322;2023-05-07T13:29:07;19.80;54.00
820;DHT22;392;48.838;2.322;2023-05-07T13:31:35;19.90;53.70
820;DHT22;392;48.838;2.322;2023-05-07T13:34:02;19.90;54.20
820;DHT22;392;48.838;2.322;2023-05-07T13:36:29;19.90;56.10
820;DHT22;392;48.838;2.322;2023-05-07T13:38:58;19.80;57.60
820;DHT22;392;48.838;2.322;2023-05-07T13:41:27;19.80;58.80
820;DHT22;392;48.838;2.322;2023-05-07T13:43:55;19.70;59.10
820;DHT22;392;48.838;2.322;2023-05-07T13:46:23;19.60;59.50
820;DHT22;392;48.838;2.322;2023-05-07T13:48:50;19.50;60.20
820;DHT22;392;48.838;2.322;2023-05-07T13:51:17;19.50;60.40
820;DHT22;392;48.838;2.322;2023-05-07T13:53:44;19.50;60.40
820;DHT22;392;48.838;2.322;2023-05-07T13:56:12;19.50;59.20
820;DHT22;392;48.838;2.322;2023-05-07T13:58:41;19.50;60.10
820;DHT22;392;48.838;2.322;2023-05-07T14:01:08;19.60;61.40
820;DHT22;392;48.838;2.322;2023-05-07T14:03:36;19.70;62.20
820;DHT22;392;48.838;2.322;2023-05-07T14:06:05;19.80;61.50
820;DHT22;392;48.838;2.322;2023-05-07T14:08:32;19.90;60.80
820;DHT22;392;48.838;2.322;2023-05-07T14:10:59;20.00;60.70
820;DHT22;392;48.838;2.322;2023-05-07T14:13:27;20.00;60.00
820;DHT22;392;48.838;2.322;2023-05-07T14:15:57;20.00;61.10
820;DHT22;392;48.838;2.322;2023-05-07T14:18:25;20.10;60.80
820;DHT22;392;48.838;2.322;2023-05-07T14:20:52;20.00;60.40
820;DHT22;392;48.838;2.322;2023-05-07T14:23:19;20.00;61.00
820;DHT22;392;48.838;2.322;2023-05-07T14:25:52;20.00;61.50
820;DHT22;392;48.838;2.322;2023-05-07T14:28:19;20.00;61.60
820;DHT22;392;48.838;2.322;2023-05-07T14:30:47;20.00;61.10
820;DHT22;392;48.838;2.322;2023-05-07T14:33:15;20.00;61.50
820;DHT22;392;48.838;2.322;2023-05-07T14:35:43;20.00;61.70
820;DHT22;392;48.838;2.322;2023-05-07T14:38:14;20.00;62.40
820;DHT22;392;48.838;2.322;2023-05-07T14:40:41;20.10;59.60
820;DHT22;392;48.838;2.322;2023-05-07T14:43:09;20.10;59.30
820;DHT22;392;48.838;2.322;2023-05-07T14:45:36;20.30;60.30
820;DHT22;392;48.838;2.322;2023-05-07T14:48:04;20.50;60.20
820;DHT22;392;48.838;2.322;2023-05-07T14:50:33;20.60;58.70
820;DHT22;392;48.838;2.322;2023-05-07T14:53:00;20.70;58.50
820;DHT22;392;48.838;2.322;2023-05-07T14:55:27;20.80;57.80
820;DHT22;392;48.838;2.322;2023-05-07T14:57:55;21.00;56.60
820;DHT22;392;48.838;2.322;2023-05-07T15:00:23;21.00;55.50
820;DHT22;392;48.838;2.322;2023-05-07T15:02:50;21.10;53.30
820;DHT22;392;48.838;2.322;2023-05-07T15:05:18;21.00;52.50
820;DHT22;392;48.838;2.322;2023-05-07T15:07:47;21.00;52.90
820;DHT22;392;48.838;2.322;2023-05-07T15:10:14;20.80;51.90
820;DHT22;392;48.838;2.322;2023-05-07T15:12:42;20.60;53.20
820;DHT22;392;48.838;2.322;2023-05-07T15:15:10;20.30;52.50
820;DHT22;392;48.838;2.322;2023-05-07T15:17:37;20.00;56.70
820;DHT22;392;48.838;2.322;2023-05-07T15:20:06;19.70;63.00
820;DHT22;392;48.838;2.322;2023-05-07T15:22:34;19.30;66.60
820;DHT22;392;48.838;2.322;2023-05-07T15:25:04;19.00;67.90
820;DHT22;392;48.838;2.322;2023-05-07T15:27:32;18.80;69.80
820;DHT22;392;48.838;2.322;2023-05-07T15:29:59;18.60;72.10
820;DHT22;392;48.838;2.322;2023-05-07T15:32:26;18.40;73.80
820;DHT22;392;48.838;2.322;2023-05-07T15:34:53;18.30;76.20
820;DHT22;392;48.838;2.322;2023-05-07T15:37:21;18.20;78.50
820;DHT22;392;48.838;2.322;2023-05-07T15:39:48;18.10;80.60
820;DHT22;392;48.838;2.322;2023-05-07T15:42:17;18.10;82.10
820;DHT22;392;48.838;2.322;2023-05-07T15:44:44;18.00;82.90
820;DHT22;392;48.838;2.322;2023-05-07T15:47:12;18.00;83.30
820;DHT22;392;48.838;2.322;2023-05-07T15:49:40;18.00;85.00
820;DHT22;392;48.838;2.322;2023-05-07T15:52:07;18.00;85.20
820;DHT22;392;48.838;2.322;2023-05-07T15:54:35;18.10;86.10
820;DHT22;392;48.838;2.322;2023-05-07T15:57:03;18.20;87.60
820;DHT22;392;48.838;2.322;2023-05-07T15:59:33;18.30;87.50
820;DHT22;392;48.838;2.322;2023-05-07T16:02:01;18.40;87.00
820;DHT22;392;48.838;2.322;2023-05-07T16:04:28;18.70;87.50
820;DHT22;392;48.838;2.322;2023-05-07T16:07:01;19.00;86.60
820;DHT22;392;48.838;2.322;2023-05-07T16:09:28;19.20;83.20
820;DHT22;392;48.838;2.322;2023-05-07T16:11:56;19.40;77.30
820;DHT22;392;48.838;2.322;2023-05-07T16:14:23;19.70;73.80
820;DHT22;392;48.838;2.322;2023-05-07T16:16:52;20.00;71.30
820;DHT22;392;48.838;2.322;2023-05-07T16:19:19;20.20;68.60
820;DHT22;392;48.838;2.322;2023-05-07T16:21:48;20.50;61.70
820;DHT22;392;48.838;2.322;2023-05-07T16:24:15;20.60;55.00
820;DHT22;392;48.838;2.322;2023-05-07T16:26:42;20.80;55.00
820;DHT22;392;48.838;2.322;2023-05-07T16:29:10;21.00;53.60
820;DHT22;392;48.838;2.322;2023-05-07T16:31:37;21.10;53.30
820;DHT22;392;48.838;2.322;2023-05-07T16:34:06;21.10;50.30
820;DHT22;392;48.838;2.322;2023-05-07T16:36:33;21.10;49.80
820;DHT22;392;48.838;2.322;2023-05-07T16:39:01;21.10;48.30
820;DHT22;392;48.838;2.322;2023-05-07T16:41:28;21.00;47.00
820;DHT22;392;48.838;2.322;2023-05-07T16:43:56;20.90;44.70
820;DHT22;392;48.838;2.322;2023-05-07T16:46:23;20.80;45.80
820;DHT22;392;48.838;2.322;2023-05-07T16:48:51;20.70;47.50
820;DHT22;392;48.838;2.322;2023-05-07T16:51:19;20.60;48.00
820;DHT22;392;48.838;2.322;2023-05-07T16:53:47;20.50;48.60